ADDS TAF Board (Experimental) INFO Settings
IDs: Format: Expanded Condensed

KIAH - Houston/Bush Intl, TX, US

Issued at 1728 UTC 25 Jul 2016
Updated at 1747 UTC 25 Jul 2016
Time1653Z 25/18Z 25/19Z 25/20Z 25/21Z 25/22Z 25/23Z 26/00Z 26/01Z 26/02Z 26/03Z 26/04Z 26/05Z 26/06Z
Type OBS PRVL PRVL
  [TEMP]  
PRVL
  [TEMP]  
PRVL
  [TEMP]  
PRVL
  [TEMP]  
PRVL PRVL PRVL PRVL PRVL PRVL PRVL PRVL
VIS 10 >6 >6 >6 >6 >6 >6 >6 >6 >6 >6 >6 >6 >6
CIG 38 35 35
  [35]  
35
  [35]  
35
  [35]  
35
  [35]  
35 35 35 -- -- -- -- --
Cover BKN OVC OVC
  [OVC]  
OVC
  [OVC]  
OVC
  [OVC]  
OVC
  [OVC]  
OVC OVC OVC SCT SCT SCT SCT SCT
FltCat VFR VFR VFR
  [VFR]  
VFR
  [VFR]  
VFR
  [VFR]  
VFR
  [VFR]  
VFR VFR VFR VFR VFR VFR VFR VFR
WX -- VCTS VCTS
  [TSRA]  
VCTS
  [TSRA]  
VCTS
  [TSRA]  
VCTS
  [TSRA]  
VCTS VCTS VCTS -- -- -- -- --
WDir 320 170 170
[VRB]
170
[VRB]
170
[VRB]
170
[VRB]
170 170 170 VRB VRB VRB VRB VRB
WSpd 4 5 5
  [10]  
5
  [10]  
5
  [10]  
5
  [10]  
5 5 5 4 4 4 4 4
WGst -- -- --
  [20]  
--
  [20]  
--
  [20]  
--
  [20]  
-- -- -- -- -- -- -- --
R08/26
XWnd 3 -5 -5 -5 -5 -5 -5 -5 -5 VRB VRB VRB VRB VRB
XGst -- -- 0 0 0 0 -- -- -- -- -- -- -- --
HWnd -3 1 1 1 1 1 1 1 1 VRB VRB VRB VRB VRB
HGst -- -- 0 0 0 0 -- -- -- -- -- -- -- --
R09/27
XWnd 3 -5 -5 -5 -5 -5 -5 -5 -5 VRB VRB VRB VRB VRB
XGst -- -- 0 0 0 0 -- -- -- -- -- -- -- --
HWnd -3 1 1 1 1 1 1 1 1 VRB VRB VRB VRB VRB
HGst -- -- 0 0 0 0 -- -- -- -- -- -- -- --
R15/33
XWnd -1 -2 -2 -2 -2 -2 -2 -2 -2 VRB VRB VRB VRB VRB
XGst -- -- 0 0 0 0 -- -- -- -- -- -- -- --
HWnd -4 5 5 5 5 5 5 5 5 VRB VRB VRB VRB VRB
HGst -- -- 0 0 0 0 -- -- -- -- -- -- -- --

Raw TAF
KIAH 251728Z 2518/2624 17005KT P6SM VCTS BKN035CB OVC250
  TEMPO 2519/2523 VRB10G20KT TSRA
  FM260200 VRB04KT P6SM SCT250
  FM261600 VRB03KT P6SM VCTS SCT035CB
  TEMPO 2618/2622 TSRA


Raw METAR
KIAH 251653Z 32004KT 10SM BKN038TCU BKN250 34/22 A2994 RMK AO2 SLP137 TCU N-E T03440222
KIAH 251553Z VRB03KT 10SM BKN030 BKN250 32/23 A2995 RMK AO2 SLP141 T03220233
KIAH 251453Z 29007KT 10SM SCT025 SCT120 SCT250 31/24 A2996 RMK AO2 SLP144 T03110239 58000

METAR Board
Radar Display
Forecast Discussion

TAF Board Legend

Potential Impact
Threat None Slight Moderate High
Visibility (sm) ≥5.1 5.1>X≥3 3>X≥1 <1
Ceiling (100 ft) ≥30.1 30.1>X≥10 10>X≥5 <5
Wind Speed (kt) <10 10≤X<20 20≤X<30 ≥30
Wind Gust (kt) <15 15≤X<25 25≤X<35 ≥35
Weather No Wx Reported VCTS,-TS,-FZRA,SN TS,FZRA +TS,+FZRA,+SN